Time;durP1;ratioP1;P1;durP2;ratioP2;P2;SDS_P1;SDS_P2;PMS_P1;PMS_P2;Temp;Humidity;BMP_temperature;BMP_pressure;BME280_temperature;BME280_humidity;BME280_pressure;Samples;Min_cycle;Max_cycle;Signal;HPM_P1;HPM_P2
2022/05/23 00:02:05;;;;;;;0.90;0.90;;;22.10;67.40;;;;;;5088346;28;43968;-73
2022/05/23 00:04:33;;;;;;;0.80;0.80;;;22.00;67.40;;;;;;5088974;28;44026;-73
2022/05/23 00:07:02;;;;;;;0.83;0.83;;;22.00;67.60;;;;;;5089212;28;44090;-71
2022/05/23 00:09:30;;;;;;;1.00;1.00;;;22.00;67.70;;;;;;5088556;28;45144;-72
2022/05/23 00:11:58;;;;;;;0.90;0.90;;;21.90;68.50;;;;;;5088187;28;43889;-72
2022/05/23 00:14:27;;;;;;;0.90;0.90;;;21.90;69.20;;;;;;5088219;28;44048;-72
2022/05/23 00:16:57;;;;;;;1.00;1.00;;;21.90;69.80;;;;;;5088587;28;44017;-72
2022/05/23 00:19:25;;;;;;;1.00;1.00;;;22.10;69.80;;;;;;5088439;28;43936;-72
2022/05/23 00:21:52;;;;;;;0.90;0.90;;;22.30;69.00;;;;;;5088714;28;43969;-72
2022/05/23 00:24:20;;;;;;;0.80;0.80;;;22.40;68.30;;;;;;5088449;28;43430;-72
2022/05/23 00:26:49;;;;;;;1.00;1.00;;;22.50;67.70;;;;;;5088588;28;44056;-73
2022/05/23 00:29:17;;;;;;;1.00;1.00;;;22.50;67.80;;;;;;5087777;28;45095;-71
2022/05/23 00:37:14;;;;;;;0.90;0.90;;;22.30;67.00;;;;;;5069830;28;44162;-72
2022/05/23 00:39:41;;;;;;;1.03;1.03;;;22.20;67.10;;;;;;5069669;28;45670;-72
2022/05/23 00:45:00;;;;;;;0.90;0.90;;;22.00;69.20;;;;;;5088231;28;44066;-72
2022/05/23 00:47:29;;;;;;;1.00;1.00;;;22.10;69.60;;;;;;5088328;28;43350;-72
2022/05/23 00:49:59;;;;;;;0.80;0.80;;;22.20;69.00;;;;;;5069319;28;46128;-72
2022/05/23 00:52:30;;;;;;;0.90;0.90;;;22.30;68.80;;;;;;5087995;28;43840;-73
2022/05/23 00:55:00;;;;;;;0.90;0.90;;;22.30;68.50;;;;;;5087929;28;44061;-73
2022/05/23 00:57:29;;;;;;;1.00;1.00;;;22.20;67.80;;;;;;5087431;27;43841;-73
2022/05/23 00:59:57;;;;;;;0.73;0.73;;;22.10;67.40;;;;;;5087688;28;44018;-72
2022/05/23 01:02:27;;;;;;;0.93;0.93;;;22.10;67.50;;;;;;5069490;28;44085;-70
2022/05/23 01:04:55;;;;;;;1.00;1.00;;;22.00;67.70;;;;;;5088149;28;43336;-70
2022/05/23 01:07:24;;;;;;;0.80;0.80;;;22.00;67.80;;;;;;5088301;28;43964;-69
2022/05/23 01:09:52;;;;;;;0.90;0.90;;;21.90;67.90;;;;;;5069135;28;45509;-69
2022/05/23 01:12:21;;;;;;;0.90;0.90;;;21.90;69.40;;;;;;5068959;28;43353;-71
2022/05/23 01:14:50;;;;;;;1.00;1.00;;;21.90;69.90;;;;;;5069193;28;43985;-70
2022/05/23 01:17:18;;;;;;;0.87;0.87;;;22.10;69.80;;;;;;5087647;28;43968;-69
2022/05/23 01:19:47;;;;;;;0.80;0.80;;;22.20;68.90;;;;;;5068838;28;44860;-68
2022/05/23 01:22:18;;;;;;;0.80;0.80;;;22.40;68.50;;;;;;5068906;28;44885;-68
2022/05/23 01:24:51;;;;;;;0.80;0.80;;;22.50;68.00;;;;;;5068956;28;43880;-70
2022/05/23 01:27:20;;;;;;;0.90;0.90;;;22.50;67.90;;;;;;5069656;28;43936;-70
2022/05/23 01:29:48;;;;;;;0.97;0.97;;;22.40;68.00;;;;;;5068425;28;44032;-71
2022/05/23 01:32:18;;;;;;;1.00;1.00;;;22.30;67.30;;;;;;5068371;28;44067;-69
2022/05/23 01:34:50;;;;;;;0.80;0.80;;;22.20;67.20;;;;;;5068884;28;43931;-70
2022/05/23 01:37:20;;;;;;;0.90;0.90;;;22.10;67.30;;;;;;5087452;28;43981;-69
2022/05/23 01:40:11;;;;;;;1.00;1.00;;;22.10;67.90;;;;;;5086403;28;44030;-69
2022/05/23 01:43:07;;;;;;;0.90;0.90;;;22.10;69.70;;;;;;5082589;28;43995;-70
2022/05/23 01:45:41;;;;;;;0.90;0.90;;;22.20;69.60;;;;;;5068737;28;44011;-69
2022/05/23 01:48:24;;;;;;;0.80;0.80;;;22.30;68.80;;;;;;5069170;28;43561;-69
2022/05/23 01:50:53;;;;;;;0.90;0.90;;;22.20;68.60;;;;;;5068715;28;44802;-69
2022/05/23 01:53:21;;;;;;;0.80;0.80;;;22.20;68.10;;;;;;5068336;28;45462;-69
2022/05/23 01:56:03;;;;;;;0.90;0.90;;;22.10;67.60;;;;;;5068684;28;43936;-69
2022/05/23 02:01:36;;;;;;;1.00;1.00;;;22.00;67.80;;;;;;5068176;28;43990;-69
2022/05/23 02:04:05;;;;;;;0.80;0.80;;;21.90;68.00;;;;;;5068497;28;44503;-69
2022/05/23 02:06:43;;;;;;;0.93;0.93;;;21.90;68.10;;;;;;5068488;28;43900;-69
2022/05/23 02:09:27;;;;;;;0.80;0.80;;;21.90;70.20;;;;;;5069649;28;44064;-70
2022/05/23 02:12:20;;;;;;;0.87;0.87;;;21.90;69.90;;;;;;5085842;28;44016;-70
2022/05/23 02:14:52;;;;;;;0.90;0.90;;;22.10;69.80;;;;;;5071860;28;44064;-69
2022/05/23 02:17:38;;;;;;;0.87;0.87;;;22.30;69.10;;;;;;5086607;28;43968;-69
2022/05/23 02:20:07;;;;;;;0.83;0.83;;;22.50;68.30;;;;;;5072324;28;44104;-70
2022/05/23 02:22:36;;;;;;;1.00;1.00;;;22.50;68.10;;;;;;5071580;28;45880;-69
2022/05/23 02:25:18;;;;;;;1.00;1.00;;;22.40;68.10;;;;;;5071831;28;43995;-70
2022/05/23 02:27:46;;;;;;;0.90;0.90;;;22.40;67.70;;;;;;5090414;28;43364;-69
2022/05/23 02:30:16;;;;;;;0.80;0.80;;;22.20;67.30;;;;;;5071776;28;44091;-69
2022/05/23 02:32:45;;;;;;;0.90;0.90;;;22.10;67.30;;;;;;5071222;28;43877;-70
2022/05/23 02:35:14;;;;;;;1.07;0.90;;;22.10;67.50;;;;;;5071122;28;44773;-70
2022/05/23 02:37:43;;;;;;;1.00;1.00;;;22.00;68.00;;;;;;5071558;28;43399;-69
2022/05/23 02:40:12;;;;;;;1.00;1.00;;;22.00;69.70;;;;;;5072036;28;43947;-70
2022/05/23 02:42:40;;;;;;;1.00;1.00;;;22.10;69.80;;;;;;5071163;28;44595;-70
2022/05/23 02:45:10;;;;;;;1.00;1.00;;;22.20;69.30;;;;;;5071173;28;44090;-70
2022/05/23 02:47:43;;;;;;;1.00;1.00;;;22.30;68.90;;;;;;5070938;28;43999;-69
2022/05/23 02:50:13;;;;;;;0.80;0.80;;;22.20;68.50;;;;;;5068614;28;43940;-70
2022/05/23 02:52:44;;;;;;;0.90;0.90;;;22.20;67.70;;;;;;5067237;28;45508;-69
2022/05/23 02:55:15;;;;;;;0.93;0.93;;;22.10;67.70;;;;;;5071237;28;44116;-69
2022/05/23 02:57:43;;;;;;;0.80;0.80;;;22.00;67.80;;;;;;5071194;28;43960;-69
2022/05/23 03:00:18;;;;;;;0.90;0.90;;;21.90;67.90;;;;;;5068275;28;44024;-70
2022/05/23 03:03:04;;;;;;;0.97;0.97;;;21.90;68.10;;;;;;5067616;28;44024;-69
2022/05/23 03:05:42;;;;;;;0.90;0.90;;;21.90;68.20;;;;;;5071071;28;44007;-69
2022/05/23 03:08:10;;;;;;;1.00;1.00;;;21.80;69.90;;;;;;5071148;28;43933;-70
2022/05/23 03:10:38;;;;;;;1.00;1.00;;;21.90;70.00;;;;;;5071527;28;43499;-69
2022/05/23 03:13:09;;;;;;;0.90;0.90;;;22.10;69.60;;;;;;5070013;28;45455;-69
2022/05/23 03:15:37;;;;;;;0.97;0.97;;;22.20;69.10;;;;;;5070830;28;44981;-69
2022/05/23 03:18:07;;;;;;;0.80;0.80;;;22.40;68.40;;;;;;5070769;28;43817;-70
2022/05/23 03:20:39;;;;;;;0.80;0.80;;;22.40;68.10;;;;;;5070536;28;43625;-70
2022/05/23 03:28:39;;;;;;;1.00;1.00;;;22.20;67.50;;;;;;5071049;28;43864;-69
2022/05/23 03:31:07;;;;;;;0.90;0.90;;;22.10;67.50;;;;;;5089385;28;43992;-69
2022/05/23 03:33:37;;;;;;;0.90;0.90;;;22.00;67.70;;;;;;5070586;28;46918;-70
2022/05/23 03:36:08;;;;;;;0.87;0.87;;;22.00;68.00;;;;;;5070352;28;44601;-69
2022/05/23 03:38:37;;;;;;;1.00;1.00;;;22.00;69.90;;;;;;5070568;28;43971;-70
2022/05/23 03:41:06;;;;;;;0.80;0.80;;;22.00;69.80;;;;;;5070948;28;44169;-70
2022/05/23 03:43:34;;;;;;;1.10;1.10;;;22.20;69.40;;;;;;5070568;28;45928;-69
2022/05/23 03:46:06;;;;;;;1.10;1.10;;;22.30;69.00;;;;;;5070355;28;44939;-69
2022/05/23 03:48:34;;;;;;;1.43;1.43;;;22.20;68.60;;;;;;5088953;28;43892;-69
2022/05/23 03:51:04;;;;;;;1.63;1.20;;;22.20;68.00;;;;;;5070899;28;43968;-69
2022/05/23 03:53:32;;;;;;;2.73;1.83;;;22.10;67.70;;;;;;5088723;28;43608;-69
2022/05/23 03:56:05;;;;;;;2.43;2.03;;;22.00;67.70;;;;;;5070318;28;45468;-69
2022/05/23 03:58:38;;;;;;;4.30;2.40;;;22.00;68.00;;;;;;5070394;28;43986;-69
2022/05/23 04:01:22;;;;;;;4.40;2.50;;;21.90;68.00;;;;;;5070789;28;43399;-69
2022/05/23 04:03:57;;;;;;;4.67;2.50;;;21.90;68.30;;;;;;5070571;28;45754;-70
2022/05/23 04:06:30;;;;;;;7.43;3.33;;;21.80;68.30;;;;;;5088848;28;43465;-69
2022/05/23 04:09:05;;;;;;;6.33;3.10;;;21.80;69.90;;;;;;5070490;28;44317;-70
2022/05/23 04:11:35;;;;;;;5.33;3.07;;;21.90;69.90;;;;;;5070522;28;43519;-70
2022/05/23 04:14:03;;;;;;;5.10;3.20;;;22.10;69.60;;;;;;5084258;27;44357;-69
2022/05/23 04:16:38;;;;;;;6.00;3.40;;;22.30;68.80;;;;;;5090769;27;43940;-70
2022/05/23 04:19:09;;;;;;;7.37;3.60;;;22.40;68.20;;;;;;5090607;27;43913;-69
2022/05/23 04:21:46;;;;;;;6.00;3.07;;;22.40;68.20;;;;;;5090887;27;43910;-69
2022/05/23 04:24:22;;;;;;;3.50;2.93;;;22.40;68.20;;;;;;5090251;27;44010;-69
2022/05/23 04:26:58;;;;;;;4.20;3.10;;;22.30;67.70;;;;;;5090378;27;43963;-69
2022/05/23 04:29:31;;;;;;;3.53;2.90;;;22.10;67.30;;;;;;5090524;27;44148;-70
2022/05/23 04:32:01;;;;;;;3.30;2.90;;;22.10;67.60;;;;;;5109221;27;44014;-70
2022/05/23 04:37:35;;;;;;;5.23;3.20;;;22.00;69.00;;;;;;5090291;27;44659;-69
2022/05/23 04:40:05;;;;;;;6.67;2.93;;;22.00;69.90;;;;;;5090237;27;43888;-71
2022/05/23 04:42:37;;;;;;;3.57;2.80;;;22.00;69.80;;;;;;5090486;27;43519;-69
2022/05/23 04:45:09;;;;;;;3.23;3.00;;;22.20;69.20;;;;;;5090061;27;44954;-70
2022/05/23 04:50:32;;;;;;;5.27;3.17;;;22.20;68.80;;;;;;5090381;27;43375;-70
2022/05/23 04:53:06;;;;;;;3.93;3.10;;;22.10;67.90;;;;;;5090728;27;43669;-70
2022/05/23 04:55:48;;;;;;;5.33;3.17;;;22.00;67.80;;;;;;5089990;27;43968;-70
2022/05/23 04:58:16;;;;;;;4.47;3.20;;;22.00;68.10;;;;;;5089981;27;45349;-68
2022/05/23 05:00:44;;;;;;;3.33;3.03;;;21.90;68.20;;;;;;5089623;27;43912;-69
2022/05/23 05:03:17;;;;;;;3.10;2.80;;;21.80;68.30;;;;;;5090322;27;43948;-69
2022/05/23 05:05:46;;;;;;;3.93;3.27;;;21.80;69.10;;;;;;5089768;27;44978;-69
2022/05/23 05:08:16;;;;;;;3.50;3.10;;;21.80;69.40;;;;;;5089846;27;43960;-71
2022/05/23 05:10:47;;;;;;;3.03;2.73;;;21.80;70.10;;;;;;5089952;27;43496;-70
2022/05/23 05:13:15;;;;;;;4.07;2.90;;;22.00;70.30;;;;;;5090503;27;44072;-69
2022/05/23 05:15:46;;;;;;;3.00;2.50;;;22.20;69.90;;;;;;5089639;27;45015;-69
2022/05/23 05:18:22;;;;;;;3.33;3.03;;;22.30;68.80;;;;;;5108170;27;43899;-69
2022/05/23 05:21:04;;;;;;;3.00;2.77;;;22.40;68.20;;;;;;5089558;27;43904;-70
2022/05/23 05:24:01;;;;;;;3.33;2.90;;;22.40;68.40;;;;;;5108181;27;44060;-69
2022/05/23 05:26:35;;;;;;;2.73;2.43;;;22.30;68.10;;;;;;5089471;27;43960;-69
2022/05/23 05:29:03;;;;;;;3.87;2.80;;;22.20;67.70;;;;;;5089201;27;45894;-69
2022/05/23 05:31:33;;;;;;;3.27;2.70;;;22.10;67.50;;;;;;5089505;27;44037;-69
2022/05/23 05:34:02;;;;;;;2.83;2.63;;;22.10;67.90;;;;;;5108604;27;43426;-69
2022/05/23 05:36:33;;;;;;;2.40;2.20;;;22.00;67.90;;;;;;5089414;27;46987;-70
2022/05/23 05:39:04;;;;;;;2.67;2.47;;;22.00;69.60;;;;;;5107830;27;43408;-70
2022/05/23 05:41:38;;;;;;;2.67;2.47;;;22.00;69.90;;;;;;5089311;27;43918;-69
2022/05/23 05:44:07;;;;;;;5.93;3.63;;;22.10;69.50;;;;;;5089172;27;44030;-70
2022/05/23 05:46:40;;;;;;;2.50;2.30;;;22.20;69.20;;;;;;5089026;27;43919;-70
2022/05/23 05:49:19;;;;;;;2.90;2.70;;;22.20;69.00;;;;;;5089212;27;44127;-69
2022/05/23 05:51:48;;;;;;;2.40;2.30;;;22.10;68.20;;;;;;5089289;27;43873;-69
2022/05/23 05:54:36;;;;;;;2.13;2.03;;;22.10;67.90;;;;;;5089619;27;43956;-69
2022/05/23 05:57:11;;;;;;;2.37;2.17;;;22.00;68.00;;;;;;5089196;27;46115;-69
2022/05/23 05:59:39;;;;;;;2.63;2.43;;;21.90;68.20;;;;;;5089042;27;43441;-69
2022/05/23 06:02:08;;;;;;;2.40;2.30;;;21.90;68.30;;;;;;5089098;27;43995;-70
2022/05/23 06:04:37;;;;;;;2.57;2.40;;;21.90;68.50;;;;;;5089601;27;44077;-69
2022/05/23 06:13:33;;;;;;;2.87;2.37;;;22.00;70.10;;;;;;5043195;28;44055;-70
2022/05/23 06:16:11;;;;;;;3.20;2.07;;;22.20;69.50;;;;;;5044638;28;43976;-70
2022/05/23 06:18:52;;;;;;;2.23;2.13;;;22.40;68.80;;;;;;5072679;27;44050;-70
2022/05/23 06:21:21;;;;;;;2.33;2.20;;;22.50;68.50;;;;;;5107248;27;43404;-70
2022/05/23 06:23:49;;;;;;;2.30;2.20;;;22.50;68.30;;;;;;5088770;27;43294;-69
2022/05/23 06:26:33;;;;;;;1.80;1.70;;;22.40;68.30;;;;;;5089440;27;44318;-70
2022/05/23 06:29:18;;;;;;;2.10;2.00;;;22.30;68.30;;;;;;5088660;27;44027;-71
2022/05/23 06:31:47;;;;;;;2.50;2.30;;;22.20;67.70;;;;;;5088432;27;43860;-69
2022/05/23 06:34:19;;;;;;;2.37;2.27;;;22.10;67.90;;;;;;5088807;27;43851;-69
2022/05/23 06:36:52;;;;;;;2.23;2.03;;;22.10;69.10;;;;;;5088900;27;43908;-71
2022/05/23 06:39:20;;;;;;;2.07;1.97;;;22.10;70.10;;;;;;5088589;27;45084;-69
2022/05/23 06:42:11;;;;;;;2.13;2.03;;;22.10;69.80;;;;;;5104151;27;44047;-70
2022/05/23 06:45:06;;;;;;;1.93;1.83;;;22.20;69.30;;;;;;5106836;27;44017;-69
2022/05/23 06:48:00;;;;;;;2.40;2.30;;;22.20;69.00;;;;;;5106648;27;44013;-69
2022/05/23 06:50:58;;;;;;;2.97;2.27;;;22.20;68.50;;;;;;5088667;27;46448;-69
2022/05/23 06:53:32;;;;;;;1.90;1.90;;;22.10;68.00;;;;;;5088099;27;44034;-69
2022/05/23 06:56:16;;;;;;;2.00;1.93;;;22.00;68.10;;;;;;5089290;27;44015;-69
2022/05/23 06:58:47;;;;;;;2.20;2.10;;;22.00;68.30;;;;;;5092277;27;43590;-69
2022/05/23 07:01:27;;;;;;;2.00;1.90;;;21.90;68.40;;;;;;5091490;27;44040;-68
2022/05/23 07:04:19;;;;;;;2.10;2.00;;;21.90;68.60;;;;;;5101363;27;43972;-70
2022/05/23 07:12:46;;;;;;;2.10;2.00;;;22.10;70.10;;;;;;5109051;27;43993;-70
2022/05/23 07:15:17;;;;;;;1.90;1.90;;;22.30;69.30;;;;;;5091619;27;43966;-69
2022/05/23 07:17:45;;;;;;;1.90;1.80;;;22.40;68.70;;;;;;5091756;27;43896;-69
2022/05/23 07:20:22;;;;;;;1.90;1.90;;;22.40;68.60;;;;;;5091960;27;43509;-69
2022/05/23 07:23:25;;;;;;;1.70;1.70;;;22.40;68.50;;;;;;5101687;27;44024;-69
2022/05/23 07:26:02;;;;;;;1.97;1.87;;;22.20;68.00;;;;;;5091434;27;44011;-69
2022/05/23 07:28:53;;;;;;;1.90;1.80;;;22.10;67.90;;;;;;5091630;27;44084;-69
2022/05/23 07:31:29;;;;;;;2.00;1.90;;;22.10;68.20;;;;;;5092174;27;43426;-69
2022/05/23 07:33:57;;;;;;;1.80;1.80;;;22.00;68.30;;;;;;5091342;27;43931;-69
2022/05/23 07:36:25;;;;;;;1.70;1.70;;;22.00;70.10;;;;;;5109837;27;43776;-69
2022/05/23 07:38:54;;;;;;;1.67;1.67;;;22.00;70.30;;;;;;5091586;27;43971;-69
2022/05/23 07:41:45;;;;;;;1.87;1.77;;;22.20;70.00;;;;;;5101365;27;43959;-69
2022/05/23 07:44:16;;;;;;;1.67;1.67;;;22.30;69.20;;;;;;5091456;27;44010;-69
2022/05/23 07:46:45;;;;;;;1.77;1.77;;;22.40;68.90;;;;;;5090888;27;44270;-69
2022/05/23 07:49:16;;;;;;;1.50;1.50;;;22.30;68.90;;;;;;5091400;27;44022;-69
2022/05/23 07:51:59;;;;;;;1.60;1.60;;;22.20;68.30;;;;;;5091543;27;43959;-69
2022/05/23 08:00:31;;;;;;;1.80;1.70;;;22.00;68.40;;;;;;5090455;27;43971;-69
2022/05/23 08:03:16;;;;;;;1.50;1.50;;;21.90;68.60;;;;;;5090861;27;43524;-69
2022/05/23 08:06:05;;;;;;;1.80;1.70;;;21.90;70.30;;;;;;5090721;27;46012;-69
2022/05/23 08:08:35;;;;;;;2.00;1.90;;;22.00;70.60;;;;;;5090351;27;44865;-69
2022/05/23 08:11:08;;;;;;;1.50;1.50;;;22.10;70.30;;;;;;5090902;27;43499;-70
2022/05/23 08:13:47;;;;;;;1.60;1.60;;;22.30;69.60;;;;;;5090865;27;43991;-70
2022/05/23 08:16:15;;;;;;;1.77;1.70;;;22.30;69.00;;;;;;5090608;27;44023;-69
2022/05/23 08:18:46;;;;;;;1.80;1.73;;;22.30;68.90;;;;;;5090371;27;44751;-69
2022/05/23 08:21:15;;;;;;;1.60;1.60;;;22.20;68.40;;;;;;5090650;27;43963;-70
2022/05/23 08:23:44;;;;;;;1.60;1.60;;;22.10;68.10;;;;;;5109548;27;43357;-69
2022/05/23 08:26:18;;;;;;;1.53;1.53;;;22.10;68.40;;;;;;5090478;27;43889;-69
2022/05/23 08:28:47;;;;;;;1.60;1.60;;;22.00;68.60;;;;;;5090355;27;44037;-68
2022/05/23 08:31:17;;;;;;;1.50;1.50;;;21.90;68.90;;;;;;5090479;27;43957;-69
2022/05/23 08:34:04;;;;;;;1.40;1.40;;;21.90;68.90;;;;;;5090831;27;44015;-69
2022/05/23 08:36:32;;;;;;;1.90;1.80;;;21.80;68.90;;;;;;5108678;27;43900;-69
2022/05/23 08:39:02;;;;;;;1.90;1.80;;;21.80;69.10;;;;;;5090004;27;44390;-70
2022/05/23 08:41:37;;;;;;;1.30;1.30;;;21.80;69.10;;;;;;5090439;27;43999;-69
2022/05/23 08:44:16;;;;;;;1.80;1.70;;;21.70;69.10;;;;;;5090568;27;43392;-69
2022/05/23 08:46:58;;;;;;;1.47;1.37;;;21.70;69.20;;;;;;5090210;27;45763;-69
2022/05/23 08:49:35;;;;;;;1.60;1.50;;;21.80;70.50;;;;;;5090687;27;44616;-69
2022/05/23 08:52:07;;;;;;;1.40;1.40;;;21.90;70.40;;;;;;5090014;27;43900;-69
2022/05/23 08:54:49;;;;;;;1.43;1.43;;;22.10;70.00;;;;;;5090536;27;44137;-69
2022/05/23 08:57:38;;;;;;;1.30;1.30;;;22.40;69.50;;;;;;5105527;27;43948;-69
2022/05/23 09:00:08;;;;;;;1.50;1.50;;;22.60;68.60;;;;;;5089783;27;44055;-70
2022/05/23 09:02:42;;;;;;;1.50;1.50;;;22.80;67.80;;;;;;5089809;27;44075;-70
2022/05/23 09:05:32;;;;;;;1.40;1.40;;;23.00;67.30;;;;;;5090455;27;44063;-69
2022/05/23 09:08:25;;;;;;;1.30;1.30;;;23.20;66.60;;;;;;5090057;27;45783;-69
2022/05/23 09:10:58;;;;;;;1.47;1.47;;;23.40;65.90;;;;;;5108740;27;43816;-69
2022/05/23 09:13:27;;;;;;;1.10;1.10;;;23.50;65.50;;;;;;5108841;27;43879;-70
2022/05/23 09:16:03;;;;;;;1.43;1.43;;;23.50;65.40;;;;;;5090182;27;43729;-68
2022/05/23 09:18:38;;;;;;;1.27;1.27;;;23.50;65.10;;;;;;5089003;27;45300;-69
2022/05/23 09:21:07;;;;;;;1.33;1.33;;;23.50;65.20;;;;;;5108082;27;44235;-69
2022/05/23 09:23:37;;;;;;;1.53;1.53;;;23.30;65.90;;;;;;5108055;27;43891;-70
2022/05/23 09:26:11;;;;;;;1.40;1.40;;;23.10;66.70;;;;;;5108682;27;44024;-69
2022/05/23 09:28:39;;;;;;;1.40;1.40;;;22.90;66.70;;;;;;5108103;27;44012;-70
2022/05/23 09:31:11;;;;;;;1.47;1.47;;;22.70;66.60;;;;;;5089476;27;45028;-69
2022/05/23 09:33:43;;;;;;;1.30;1.30;;;22.50;68.30;;;;;;5107943;27;43967;-69
2022/05/23 09:36:15;;;;;;;1.37;1.37;;;22.50;68.60;;;;;;5108404;27;44002;-71
2022/05/23 09:38:46;;;;;;;1.43;1.43;;;22.60;68.60;;;;;;5108059;27;43611;-69
2022/05/23 09:47:45;;;;;;;1.53;1.53;;;22.50;68.00;;;;;;5107955;27;43783;-69
2022/05/23 09:50:14;;;;;;;1.50;1.50;;;22.30;67.70;;;;;;5107827;27;43899;-69
2022/05/23 09:53:03;;;;;;;1.20;1.20;;;22.20;68.00;;;;;;5107724;27;43869;-69
2022/05/23 09:55:33;;;;;;;1.27;1.27;;;22.00;68.10;;;;;;5089131;27;43996;-68
2022/05/23 09:58:02;;;;;;;1.20;1.20;;;22.00;68.40;;;;;;5108211;27;43964;-70
2022/05/23 10:00:34;;;;;;;1.50;1.50;;;22.00;68.70;;;;;;5107732;27;45114;-69
2022/05/23 10:03:04;;;;;;;1.30;1.30;;;21.90;70.60;;;;;;5107368;27;43973;-70
2022/05/23 10:05:33;;;;;;;1.40;1.40;;;22.00;70.70;;;;;;5107780;27;43932;-70
2022/05/23 10:08:11;;;;;;;1.40;1.40;;;22.20;70.30;;;;;;5089519;27;43885;-69
2022/05/23 10:10:40;;;;;;;1.20;1.20;;;22.30;69.60;;;;;;5107615;27;44006;-71
2022/05/23 10:13:25;;;;;;;1.27;1.27;;;22.50;68.90;;;;;;5107437;27;44118;-68
2022/05/23 10:15:54;;;;;;;1.60;1.50;;;22.50;68.60;;;;;;5107458;27;43783;-69
2022/05/23 10:18:24;;;;;;;1.40;1.40;;;22.50;68.70;;;;;;5107994;27;43386;-69
2022/05/23 10:20:55;;;;;;;1.13;1.13;;;22.40;68.30;;;;;;5107537;27;43934;-69
2022/05/23 10:23:26;;;;;;;1.20;1.20;;;22.30;67.90;;;;;;5107376;27;43983;-69
2022/05/23 10:25:59;;;;;;;1.37;1.30;;;22.20;68.10;;;;;;5089003;27;43873;-70
2022/05/23 10:28:32;;;;;;;1.57;1.57;;;22.10;68.30;;;;;;5107875;27;43475;-70
2022/05/23 10:31:03;;;;;;;1.20;1.20;;;22.00;69.30;;;;;;5090548;27;45627;-69
2022/05/23 10:33:33;;;;;;;1.17;1.17;;;22.00;70.60;;;;;;5110889;27;43435;-69
2022/05/23 10:36:03;;;;;;;1.30;1.30;;;22.10;70.40;;;;;;5110358;27;43376;-69
2022/05/23 10:44:15;;;;;;;1.37;1.37;;;22.40;69.60;;;;;;5110660;27;44005;-70
2022/05/23 10:46:44;;;;;;;1.30;1.30;;;22.40;68.90;;;;;;5110383;27;44073;-69
2022/05/23 10:49:34;;;;;;;1.10;1.10;;;22.30;68.10;;;;;;5092616;27;43961;-69
2022/05/23 10:52:10;;;;;;;1.10;1.10;;;22.20;68.30;;;;;;5110735;27;43864;-70
2022/05/23 10:54:46;;;;;;;1.30;1.30;;;22.00;68.30;;;;;;5110503;27;43940;-70
2022/05/23 10:57:23;;;;;;;1.20;1.20;;;22.00;68.60;;;;;;5110945;27;43387;-69
2022/05/23 10:59:53;;;;;;;1.20;1.20;;;21.90;69.10;;;;;;5110988;27;43948;-70
2022/05/23 11:02:31;;;;;;;1.30;1.30;;;21.90;70.90;;;;;;5110355;27;43623;-70
2022/05/23 11:05:09;;;;;;;1.07;1.07;;;22.00;70.70;;;;;;5110287;27;43985;-70
2022/05/23 11:07:43;;;;;;;1.20;1.20;;;22.10;70.10;;;;;;5091921;27;43944;-70
2022/05/23 11:10:23;;;;;;;1.30;1.30;;;22.20;69.70;;;;;;5092175;27;44038;-69
2022/05/23 11:13:17;;;;;;;1.17;1.17;;;22.10;69.00;;;;;;5110297;27;44035;-70
2022/05/23 11:15:56;;;;;;;1.10;1.10;;;22.10;68.70;;;;;;5110303;27;44035;-69
2022/05/23 11:18:32;;;;;;;1.20;1.20;;;22.00;68.80;;;;;;5110601;27;43405;-69
2022/05/23 11:21:03;;;;;;;1.20;1.20;;;21.90;68.90;;;;;;5110693;27;43936;-69
2022/05/23 11:23:34;;;;;;;1.00;1.00;;;21.90;69.10;;;;;;5091338;27;46634;-69
2022/05/23 11:26:05;;;;;;;1.30;1.30;;;21.80;69.20;;;;;;5110050;27;44066;-70
2022/05/23 11:34:09;;;;;;;1.10;1.10;;;21.80;71.10;;;;;;5110082;27;44991;-69
2022/05/23 11:39:45;;;;;;;1.10;1.10;;;22.20;70.10;;;;;;5083862;27;43955;-69
2022/05/23 11:42:17;;;;;;;1.23;1.23;;;22.40;69.40;;;;;;5091041;27;44070;-69
2022/05/23 11:48:02;;;;;;;1.10;1.10;;;22.40;68.90;;;;;;5109224;27;43816;-70
2022/05/23 11:50:37;;;;;;;1.23;1.23;;;22.20;68.20;;;;;;5109854;27;44009;-69
2022/05/23 11:53:11;;;;;;;1.17;1.17;;;22.10;68.20;;;;;;5110130;27;43405;-70
2022/05/23 11:56:02;;;;;;;1.20;1.20;;;22.10;68.60;;;;;;5109616;27;43852;-69
2022/05/23 11:58:42;;;;;;;1.20;1.20;;;22.00;68.80;;;;;;5090811;27;44988;-69
2022/05/23 12:01:22;;;;;;;1.00;1.00;;;21.90;70.50;;;;;;5109646;27;43945;-70
2022/05/23 12:04:17;;;;;;;1.23;1.23;;;22.00;70.90;;;;;;5109807;27;43938;-69
2022/05/23 12:06:47;;;;;;;1.10;1.10;;;22.10;70.10;;;;;;5090616;27;45957;-70
2022/05/23 12:09:34;;;;;;;0.90;0.90;;;22.20;69.80;;;;;;5109379;27;44014;-69
2022/05/23 12:12:46;;;;;;;1.20;1.20;;;22.10;68.90;;;;;;5108673;27;43960;-70
2022/05/23 12:15:52;;;;;;;1.00;1.00;;;22.00;68.70;;;;;;5109859;27;43967;-70
2022/05/23 12:18:33;;;;;;;1.40;1.40;;;21.90;68.90;;;;;;5109297;27;43952;-69
2022/05/23 12:21:01;;;;;;;1.17;1.17;;;21.90;69.20;;;;;;5109215;27;43892;-70
2022/05/23 12:23:32;;;;;;;1.30;1.30;;;21.80;69.20;;;;;;5090564;27;44053;-69
2022/05/23 12:26:19;;;;;;;1.30;1.30;;;21.80;69.40;;;;;;5091059;27;43921;-69
2022/05/23 12:28:51;;;;;;;1.20;1.20;;;21.70;70.80;;;;;;5109230;27;44074;-69
2022/05/23 12:31:21;;;;;;;1.23;1.23;;;21.80;71.00;;;;;;5101428;27;43981;-70
2022/05/23 12:34:05;;;;;;;1.20;1.20;;;22.00;70.90;;;;;;5109106;27;43485;-70
2022/05/23 12:36:35;;;;;;;1.20;1.20;;;22.20;70.20;;;;;;5109210;27;43849;-70
2022/05/23 12:39:36;;;;;;;1.30;1.30;;;22.30;69.50;;;;;;5108782;27;44816;-69
2022/05/23 12:42:22;;;;;;;1.20;1.20;;;22.40;69.10;;;;;;5108967;27;43439;-70
2022/05/23 12:45:21;;;;;;;1.20;1.20;;;22.30;69.00;;;;;;5108885;27;43964;-69
2022/05/23 12:48:12;;;;;;;1.33;1.33;;;22.20;68.60;;;;;;5108216;27;44035;-69
2022/05/23 12:50:56;;;;;;;1.10;1.10;;;22.10;68.50;;;;;;5108734;27;44070;-70
2022/05/23 12:53:41;;;;;;;1.20;1.20;;;22.00;68.70;;;;;;5108159;27;44113;-70
2022/05/23 12:56:17;;;;;;;1.30;1.30;;;21.90;69.00;;;;;;5107089;27;43911;-69
2022/05/23 12:58:57;;;;;;;1.43;1.33;;;21.90;70.80;;;;;;5090143;27;43939;-70
2022/05/23 13:01:26;;;;;;;1.10;1.10;;;22.00;70.90;;;;;;5108531;27;43789;-70
2022/05/23 13:04:03;;;;;;;1.30;1.30;;;22.10;70.40;;;;;;5090049;27;44992;-70
2022/05/23 13:06:33;;;;;;;1.20;1.20;;;22.20;70.20;;;;;;5108500;27;44263;-70
2022/05/23 13:09:02;;;;;;;1.83;1.73;;;22.10;69.10;;;;;;5108950;27;43460;-70
2022/05/23 13:11:33;;;;;;;1.10;1.10;;;22.10;68.80;;;;;;5108318;27;44056;-69
2022/05/23 13:14:03;;;;;;;1.30;1.30;;;22.00;69.00;;;;;;5089644;27;44470;-70
2022/05/23 13:16:36;;;;;;;1.20;1.20;;;21.90;69.10;;;;;;5108268;27;43393;-70
2022/05/23 13:22:10;;;;;;;1.30;1.30;;;21.80;69.40;;;;;;5108397;27;43949;-70
2022/05/23 13:24:52;;;;;;;1.30;1.30;;;21.80;69.50;;;;;;5108383;27;43980;-69
2022/05/23 13:27:24;;;;;;;1.30;1.30;;;21.80;70.80;;;;;;5089571;27;43423;-69
2022/05/23 13:29:54;;;;;;;1.50;1.40;;;21.80;71.10;;;;;;5108697;27;43882;-69
2022/05/23 13:32:23;;;;;;;1.30;1.30;;;22.00;71.00;;;;;;5089500;27;47114;-69
2022/05/23 13:34:53;;;;;;;1.33;1.33;;;22.20;70.50;;;;;;5107794;27;43404;-69
2022/05/23 13:37:28;;;;;;;1.30;1.30;;;22.30;69.60;;;;;;5107956;27;44024;-69
2022/05/23 13:39:56;;;;;;;1.30;1.30;;;22.40;69.40;;;;;;5090360;27;44141;-70
2022/05/23 13:42:28;;;;;;;1.20;1.20;;;22.40;69.20;;;;;;5089652;27;45606;-70
2022/05/23 13:45:08;;;;;;;1.30;1.30;;;22.30;68.70;;;;;;5108150;27;43959;-69
2022/05/23 13:47:36;;;;;;;1.10;1.10;;;22.20;68.50;;;;;;5107510;27;43986;-70
2022/05/23 13:50:08;;;;;;;1.30;1.30;;;22.10;68.80;;;;;;5090007;27;44250;-70
2022/05/23 13:52:37;;;;;;;1.20;1.20;;;22.00;68.90;;;;;;5089223;27;47511;-69
2022/05/23 13:55:09;;;;;;;1.30;1.30;;;21.90;69.10;;;;;;5107667;27;43899;-71
2022/05/23 13:57:40;;;;;;;1.30;1.30;;;21.90;70.70;;;;;;5107650;27;43440;-70
2022/05/23 14:00:13;;;;;;;1.40;1.40;;;21.90;71.00;;;;;;5108015;27;43967;-68
2022/05/23 14:02:45;;;;;;;1.40;1.40;;;22.10;70.60;;;;;;5089070;27;45830;-70
2022/05/23 14:05:14;;;;;;;1.27;1.27;;;22.10;70.20;;;;;;5108254;27;43844;-69
2022/05/23 14:07:42;;;;;;;1.20;1.20;;;22.10;69.50;;;;;;5111218;27;43969;-69
2022/05/23 14:10:13;;;;;;;1.20;1.20;;;22.10;68.90;;;;;;5092987;27;43439;-69
2022/05/23 14:12:41;;;;;;;1.30;1.30;;;22.00;69.00;;;;;;5092705;27;46732;-69
2022/05/23 14:15:10;;;;;;;1.20;1.20;;;21.90;69.10;;;;;;5111265;27;44071;-69
2022/05/23 14:17:39;;;;;;;1.30;1.30;;;21.90;69.30;;;;;;5110984;27;43887;-69
2022/05/23 14:20:21;;;;;;;1.40;1.40;;;21.80;69.40;;;;;;5111556;27;43578;-69
2022/05/23 14:23:03;;;;;;;1.27;1.27;;;21.80;69.60;;;;;;5110962;27;43832;-69
2022/05/23 14:25:33;;;;;;;1.47;1.47;;;21.80;70.10;;;;;;5111051;27;43991;-69
2022/05/23 14:28:10;;;;;;;1.20;1.20;;;21.80;71.30;;;;;;5092366;27;44076;-69
2022/05/23 14:30:40;;;;;;;1.57;1.50;;;21.90;71.20;;;;;;5111407;27;44062;-70
2022/05/23 14:33:17;;;;;;;1.37;1.37;;;22.10;70.40;;;;;;5092198;27;46230;-69